sensor_id;sensor_type;location;lat;lon;timestamp;pressure;altitude;pressure_sealevel;temperature;humidity
46836;BME280;32573;51.290;6.926;2022-07-24T00:02:39;100560.47;;;18.63;100.00
46836;BME280;32573;51.290;6.926;2022-07-24T00:05:08;100548.97;;;18.61;100.00
46836;BME280;32573;51.290;6.926;2022-07-24T00:07:37;100554.28;;;18.58;100.00
46836;BME280;32573;51.290;6.926;2022-07-24T00:10:06;100554.25;;;18.57;100.00
46836;BME280;32573;51.290;6.926;2022-07-24T00:12:35;100549.84;;;18.54;100.00
46836;BME280;32573;51.290;6.926;2022-07-24T00:15:04;100562.19;;;18.52;100.00
46836;BME280;32573;51.290;6.926;2022-07-24T00:17:33;100556.91;;;18.50;100.00
46836;BME280;32573;51.290;6.926;2022-07-24T00:20:04;100555.16;;;18.48;100.00
46836;BME280;32573;51.290;6.926;2022-07-24T00:22:33;100549.84;;;18.45;100.00
46836;BME280;32573;51.290;6.926;2022-07-24T00:25:02;100555.13;;;18.42;100.00
46836;BME280;32573;51.290;6.926;2022-07-24T00:27:30;100544.50;;;18.39;100.00
46836;BME280;32573;51.290;6.926;2022-07-24T00:29:59;100550.69;;;18.36;100.00
46836;BME280;32573;51.290;6.926;2022-07-24T00:32:27;100551.56;;;18.33;100.00
46836;BME280;32573;51.290;6.926;2022-07-24T00:34:55;100542.72;;;18.31;100.00
46836;BME280;32573;51.290;6.926;2022-07-24T00:37:25;100549.78;;;18.29;100.00
46836;BME280;32573;51.290;6.926;2022-07-24T00:39:54;100544.47;;;18.26;100.00
46836;BME280;32573;51.290;6.926;2022-07-24T00:42:22;100542.72;;;18.25;100.00
46836;BME280;32573;51.290;6.926;2022-07-24T00:44:51;100537.44;;;18.22;100.00
46836;BME280;32573;51.290;6.926;2022-07-24T00:47:19;100539.19;;;18.20;100.00
46836;BME280;32573;51.290;6.926;2022-07-24T00:49:48;100536.53;;;18.20;100.00
46836;BME280;32573;51.290;6.926;2022-07-24T00:52:16;100537.38;;;18.19;100.00
46836;BME280;32573;51.290;6.926;2022-07-24T00:54:46;100541.81;;;18.17;100.00
46836;BME280;32573;51.290;6.926;2022-07-24T00:57:14;100538.28;;;18.15;100.00
46836;BME280;32573;51.290;6.926;2022-07-24T00:59:43;100542.69;;;18.13;100.00
46836;BME280;32573;51.290;6.926;2022-07-24T01:02:11;100544.44;;;18.11;100.00
46836;BME280;32573;51.290;6.926;2022-07-24T01:04:40;100547.97;;;18.10;100.00
46836;BME280;32573;51.290;6.926;2022-07-24T01:07:14;100545.31;;;18.08;100.00
46836;BME280;32573;51.290;6.926;2022-07-24T01:09:43;100551.50;;;18.06;100.00
46836;BME280;32573;51.290;6.926;2022-07-24T01:12:15;100553.25;;;18.04;100.00
46836;BME280;32573;51.290;6.926;2022-07-24T01:14:44;100548.84;;;18.03;100.00
46836;BME280;32573;51.290;6.926;2022-07-24T01:17:12;100550.59;;;18.02;100.00
46836;BME280;32573;51.290;6.926;2022-07-24T01:19:41;100546.19;;;18.00;100.00
46836;BME280;32573;51.290;6.926;2022-07-24T01:22:10;100544.41;;;18.00;100.00
46836;BME280;32573;51.290;6.926;2022-07-24T01:24:39;100547.91;;;17.99;100.00
46836;BME280;32573;51.290;6.926;2022-07-24T01:27:07;100546.16;;;17.98;100.00
46836;BME280;32573;51.290;6.926;2022-07-24T01:29:36;100537.34;;;17.98;100.00
46836;BME280;32573;51.290;6.926;2022-07-24T01:32:05;100549.72;;;17.97;100.00
46836;BME280;32573;51.290;6.926;2022-07-24T01:34:33;100540.84;;;17.97;100.00
46836;BME280;32573;51.290;6.926;2022-07-24T01:37:02;100536.44;;;17.96;100.00
46836;BME280;32573;51.290;6.926;2022-07-24T01:39:32;100545.28;;;17.95;100.00
46836;BME280;32573;51.290;6.926;2022-07-24T01:42:00;100541.75;;;17.93;100.00
46836;BME280;32573;51.290;6.926;2022-07-24T01:44:28;100533.78;;;17.91;100.00
46836;BME280;32573;51.290;6.926;2022-07-24T01:46:57;100533.75;;;17.89;100.00
46836;BME280;32573;51.290;6.926;2022-07-24T01:49:25;100539.06;;;17.89;100.00
46836;BME280;32573;51.290;6.926;2022-07-24T01:51:54;100532.88;;;17.87;100.00
46836;BME280;32573;51.290;6.926;2022-07-24T01:54:22;100528.44;;;17.86;100.00
46836;BME280;32573;51.290;6.926;2022-07-24T01:56:52;100527.56;;;17.86;100.00
46836;BME280;32573;51.290;6.926;2022-07-24T01:59:21;100524.03;;;17.84;100.00
46836;BME280;32573;51.290;6.926;2022-07-24T02:01:52;100533.72;;;17.82;100.00
46836;BME280;32573;51.290;6.926;2022-07-24T02:04:21;100525.78;;;17.80;100.00
46836;BME280;32573;51.290;6.926;2022-07-24T02:06:49;100524.88;;;17.78;100.00
46836;BME280;32573;51.290;6.926;2022-07-24T02:09:17;100531.91;;;17.76;100.00
46836;BME280;32573;51.290;6.926;2022-07-24T02:11:46;100531.91;;;17.76;100.00
46836;BME280;32573;51.290;6.926;2022-07-24T02:14:15;100531.91;;;17.73;100.00
46836;BME280;32573;51.290;6.926;2022-07-24T02:16:44;100530.13;;;17.72;100.00
46836;BME280;32573;51.290;6.926;2022-07-24T02:19:13;100525.69;;;17.69;100.00
46836;BME280;32573;51.290;6.926;2022-07-24T02:21:41;100528.34;;;17.68;100.00
46836;BME280;32573;51.290;6.926;2022-07-24T02:24:10;100526.56;;;17.67;100.00
46836;BME280;32573;51.290;6.926;2022-07-24T02:26:38;100529.22;;;17.65;100.00
46836;BME280;32573;51.290;6.926;2022-07-24T02:29:06;100521.25;;;17.64;100.00
46836;BME280;32573;51.290;6.926;2022-07-24T02:31:36;100529.22;;;17.62;100.00
46836;BME280;32573;51.290;6.926;2022-07-24T02:34:05;100519.50;;;17.60;100.00
46836;BME280;32573;51.290;6.926;2022-07-24T02:36:33;100519.47;;;17.58;100.00
46836;BME280;32573;51.290;6.926;2022-07-24T02:39:02;100526.50;;;17.56;100.00
46836;BME280;32573;51.290;6.926;2022-07-24T02:41:31;100522.09;;;17.54;100.00
46836;BME280;32573;51.290;6.926;2022-07-24T02:43:59;100510.59;;;17.52;100.00
46836;BME280;32573;51.290;6.926;2022-07-24T02:46:28;100511.47;;;17.49;100.00
46836;BME280;32573;51.290;6.926;2022-07-24T02:48:58;100505.28;;;17.47;100.00
46836;BME280;32573;51.290;6.926;2022-07-24T02:51:26;100505.28;;;17.45;100.00
46836;BME280;32573;51.290;6.926;2022-07-24T02:53:55;100514.97;;;17.43;100.00
46836;BME280;32573;51.290;6.926;2022-07-24T02:56:23;100508.78;;;17.41;100.00
46836;BME280;32573;51.290;6.926;2022-07-24T02:58:51;100510.53;;;17.39;100.00
46836;BME280;32573;51.290;6.926;2022-07-24T03:01:20;100498.19;;;17.38;100.00
46836;BME280;32573;51.290;6.926;2022-07-24T03:03:48;100499.94;;;17.36;100.00
46836;BME280;32573;51.290;6.926;2022-07-24T03:06:18;100504.34;;;17.34;100.00
46836;BME280;32573;51.290;6.926;2022-07-24T03:08:46;100501.69;;;17.33;100.00
46836;BME280;32573;51.290;6.926;2022-07-24T03:11:15;100498.13;;;17.32;100.00
46836;BME280;32573;51.290;6.926;2022-07-24T03:13:43;100494.63;;;17.30;100.00
46836;BME280;32573;51.290;6.926;2022-07-24T03:16:12;100501.66;;;17.30;100.00
46836;BME280;32573;51.290;6.926;2022-07-24T03:18:40;100500.78;;;17.28;100.00
46836;BME280;32573;51.290;6.926;2022-07-24T03:21:13;100496.34;;;17.27;100.00
46836;BME280;32573;51.290;6.926;2022-07-24T03:24:03;100497.22;;;17.24;100.00
46836;BME280;32573;51.290;6.926;2022-07-24T03:26:32;100498.09;;;17.23;100.00
46836;BME280;32573;51.290;6.926;2022-07-24T03:29:00;100496.31;;;17.22;100.00
46836;BME280;32573;51.290;6.926;2022-07-24T03:31:29;100496.31;;;17.22;100.00
46836;BME280;32573;51.290;6.926;2022-07-24T03:33:58;100499.84;;;17.21;100.00
46836;BME280;32573;51.290;6.926;2022-07-24T03:36:26;100495.44;;;17.20;100.00
46836;BME280;32573;51.290;6.926;2022-07-24T03:38:54;100503.38;;;17.20;100.00
46836;BME280;32573;51.290;6.926;2022-07-24T03:41:24;100499.84;;;17.18;100.00
46836;BME280;32573;51.290;6.926;2022-07-24T03:43:52;100503.34;;;17.17;100.00
46836;BME280;32573;51.290;6.926;2022-07-24T03:46:21;100497.19;;;17.15;100.00
46836;BME280;32573;51.290;6.926;2022-07-24T03:48:49;100498.03;;;17.14;100.00
46836;BME280;32573;51.290;6.926;2022-07-24T03:51:18;100500.66;;;17.12;100.00
46836;BME280;32573;51.290;6.926;2022-07-24T03:53:46;100509.47;;;17.11;100.00
46836;BME280;32573;51.290;6.926;2022-07-24T03:56:17;100512.09;;;17.10;100.00
46836;BME280;32573;51.290;6.926;2022-07-24T03:58:47;100513.00;;;17.09;100.00
46836;BME280;32573;51.290;6.926;2022-07-24T04:01:15;100516.50;;;17.06;100.00
46836;BME280;32573;51.290;6.926;2022-07-24T04:03:44;100512.97;;;17.07;100.00
46836;BME280;32573;51.290;6.926;2022-07-24T04:06:12;100522.69;;;17.07;100.00
46836;BME280;32573;51.290;6.926;2022-07-24T04:08:41;100519.13;;;17.04;100.00
46836;BME280;32573;51.290;6.926;2022-07-24T04:11:09;100525.31;;;17.05;100.00
46836;BME280;32573;51.290;6.926;2022-07-24T04:13:38;100523.56;;;17.06;100.00
46836;BME280;32573;51.290;6.926;2022-07-24T04:16:11;100517.41;;;17.05;100.00
46836;BME280;32573;51.290;6.926;2022-07-24T04:18:39;100520.03;;;17.05;100.00
46836;BME280;32573;51.290;6.926;2022-07-24T04:21:08;100520.91;;;17.06;100.00
46836;BME280;32573;51.290;6.926;2022-07-24T04:23:36;100516.50;;;17.06;100.00
46836;BME280;32573;51.290;6.926;2022-07-24T04:26:06;100520.03;;;17.05;100.00
46836;BME280;32573;51.290;6.926;2022-07-24T04:28:34;100522.69;;;17.07;100.00
46836;BME280;32573;51.290;6.926;2022-07-24T04:31:03;100516.50;;;17.06;100.00
46836;BME280;32573;51.290;6.926;2022-07-24T04:33:33;100508.59;;;17.08;100.00
46836;BME280;32573;51.290;6.926;2022-07-24T04:36:03;100517.38;;;17.07;100.00
46836;BME280;32573;51.290;6.926;2022-07-24T04:38:31;100516.53;;;17.09;100.00
46836;BME280;32573;51.290;6.926;2022-07-24T04:41:00;100523.59;;;17.10;100.00
46836;BME280;32573;51.290;6.926;2022-07-24T04:43:29;100510.38;;;17.12;100.00
46836;BME280;32573;51.290;6.926;2022-07-24T04:45:57;100508.63;;;17.14;100.00
46836;BME280;32573;51.290;6.926;2022-07-24T04:48:26;100501.59;;;17.16;100.00
46836;BME280;32573;51.290;6.926;2022-07-24T04:50:56;100505.13;;;17.18;100.00
46836;BME280;32573;51.290;6.926;2022-07-24T04:53:25;100510.44;;;17.21;100.00
46836;BME280;32573;51.290;6.926;2022-07-24T04:55:53;100500.75;;;17.23;100.00
46836;BME280;32573;51.290;6.926;2022-07-24T04:58:21;100511.34;;;17.26;100.00
46836;BME280;32573;51.290;6.926;2022-07-24T05:00:50;100506.97;;;17.31;100.00
46836;BME280;32573;51.290;6.926;2022-07-24T05:03:18;100515.81;;;17.35;100.00
46836;BME280;32573;51.290;6.926;2022-07-24T05:05:47;100502.59;;;17.39;100.00
46836;BME280;32573;51.290;6.926;2022-07-24T05:08:17;100506.16;;;17.44;100.00
46836;BME280;32573;51.290;6.926;2022-07-24T05:10:45;100507.94;;;17.49;100.00
46836;BME280;32573;51.290;6.926;2022-07-24T05:13:13;100505.34;;;17.55;100.00
46836;BME280;32573;51.290;6.926;2022-07-24T05:15:42;100498.31;;;17.60;100.00
46836;BME280;32573;51.290;6.926;2022-07-24T05:18:10;100502.75;;;17.65;100.00
46836;BME280;32573;51.290;6.926;2022-07-24T05:20:39;100504.53;;;17.73;100.00
46836;BME280;32573;51.290;6.926;2022-07-24T05:23:07;100503.69;;;17.78;100.00
46836;BME280;32573;51.290;6.926;2022-07-24T05:25:37;100500.19;;;17.84;100.00
46836;BME280;32573;51.290;6.926;2022-07-24T05:28:06;100503.75;;;17.91;100.00
46836;BME280;32573;51.290;6.926;2022-07-24T05:30:34;100501.13;;;17.95;100.00
46836;BME280;32573;51.290;6.926;2022-07-24T05:33:02;100502.91;;;18.01;100.00
46836;BME280;32573;51.290;6.926;2022-07-24T05:35:31;100507.34;;;18.08;100.00
46836;BME280;32573;51.290;6.926;2022-07-24T05:38:00;100505.59;;;18.13;100.00
46836;BME280;32573;51.290;6.926;2022-07-24T05:40:28;100499.41;;;18.19;100.00
46836;BME280;32573;51.290;6.926;2022-07-24T05:42:58;100505.59;;;18.24;100.00
46836;BME280;32573;51.290;6.926;2022-07-24T05:45:26;100502.06;;;18.29;100.00
46836;BME280;32573;51.290;6.926;2022-07-24T05:47:54;100513.59;;;18.36;100.00
46836;BME280;32573;51.290;6.926;2022-07-24T05:50:23;100504.75;;;18.42;100.00
46836;BME280;32573;51.290;6.926;2022-07-24T05:52:51;100506.53;;;18.47;100.00
46836;BME280;32573;51.290;6.926;2022-07-24T05:55:20;100516.25;;;18.53;100.00
46836;BME280;32573;51.290;6.926;2022-07-24T05:57:48;100512.72;;;18.59;100.00
46836;BME280;32573;51.290;6.926;2022-07-24T06:00:18;100514.50;;;18.64;100.00
46836;BME280;32573;51.290;6.926;2022-07-24T06:02:50;100515.38;;;18.71;100.00
46836;BME280;32573;51.290;6.926;2022-07-24T06:05:18;100524.28;;;18.78;100.00
46836;BME280;32573;51.290;6.926;2022-07-24T06:07:47;100524.25;;;18.84;100.00
46836;BME280;32573;51.290;6.926;2022-07-24T06:10:15;100519.84;;;18.89;100.00
46836;BME280;32573;51.290;6.926;2022-07-24T06:12:44;100514.53;;;18.95;100.00
46836;BME280;32573;51.290;6.926;2022-07-24T06:15:12;100526.94;;;19.02;100.00
46836;BME280;32573;51.290;6.926;2022-07-24T06:17:42;100519.84;;;19.07;100.00
46836;BME280;32573;51.290;6.926;2022-07-24T06:20:11;100530.44;;;19.16;100.00
46836;BME280;32573;51.290;6.926;2022-07-24T06:22:40;100529.53;;;19.25;100.00
46836;BME280;32573;51.290;6.926;2022-07-24T06:25:15;100531.28;;;19.34;100.00
46836;BME280;32573;51.290;6.926;2022-07-24T06:27:46;100535.72;;;19.38;100.00
46836;BME280;32573;51.290;6.926;2022-07-24T06:30:16;100537.47;;;19.45;100.00
46836;BME280;32573;51.290;6.926;2022-07-24T06:32:46;100538.34;;;19.50;100.00
46836;BME280;32573;51.290;6.926;2022-07-24T06:35:14;100528.59;;;19.55;100.00
46836;BME280;32573;51.290;6.926;2022-07-24T06:37:43;100526.78;;;19.60;100.00
46836;BME280;32573;51.290;6.926;2022-07-24T06:40:14;100527.66;;;19.64;100.00
46836;BME280;32573;51.290;6.926;2022-07-24T06:42:44;100539.22;;;19.68;100.00
46836;BME280;32573;51.290;6.926;2022-07-24T06:45:13;100538.31;;;19.69;100.00
46836;BME280;32573;51.290;6.926;2022-07-24T06:47:42;100540.94;;;19.72;100.00
46836;BME280;32573;51.290;6.926;2022-07-24T06:50:12;100543.63;;;19.75;100.00
46836;BME280;32573;51.290;6.926;2022-07-24T06:52:41;100546.25;;;19.78;100.00
46836;BME280;32573;51.290;6.926;2022-07-24T06:55:09;100535.59;;;19.81;100.00
46836;BME280;32573;51.290;6.926;2022-07-24T06:57:38;100538.25;;;19.84;100.00
46836;BME280;32573;51.290;6.926;2022-07-24T07:00:08;100540.91;;;19.87;100.00
46836;BME280;32573;51.290;6.926;2022-07-24T07:02:38;100540.88;;;19.90;100.00
46836;BME280;32573;51.290;6.926;2022-07-24T07:05:07;100534.69;;;19.93;100.00
46836;BME280;32573;51.290;6.926;2022-07-24T07:07:38;100534.66;;;19.97;100.00
46836;BME280;32573;51.290;6.926;2022-07-24T07:10:07;100532.84;;;20.01;100.00
46836;BME280;32573;51.290;6.926;2022-07-24T07:12:36;100539.03;;;20.06;100.00
46836;BME280;32573;51.290;6.926;2022-07-24T07:15:08;100539.00;;;20.09;100.00
46836;BME280;32573;51.290;6.926;2022-07-24T07:17:38;100532.78;;;20.12;100.00
46836;BME280;32573;51.290;6.926;2022-07-24T07:20:08;100536.34;;;20.15;100.00
46836;BME280;32573;51.290;6.926;2022-07-24T07:22:38;100535.44;;;20.19;100.00
46836;BME280;32573;51.290;6.926;2022-07-24T07:25:08;100545.16;;;20.23;100.00
46836;BME280;32573;51.290;6.926;2022-07-24T07:27:37;100538.91;;;20.29;100.00
46836;BME280;32573;51.290;6.926;2022-07-24T07:30:07;100549.53;;;20.34;100.00
46836;BME280;32573;51.290;6.926;2022-07-24T07:32:36;100539.75;;;20.39;100.00
46836;BME280;32573;51.290;6.926;2022-07-24T07:35:05;100537.06;;;20.43;100.00
46836;BME280;32573;51.290;6.926;2022-07-24T07:37:49;100545.88;;;20.48;100.00
46836;BME280;32573;51.290;6.926;2022-07-24T07:40:17;100532.56;;;20.53;100.00
46836;BME280;32573;51.290;6.926;2022-07-24T07:42:46;100537.88;;;20.58;100.00
46836;BME280;32573;51.290;6.926;2022-07-24T07:45:14;100538.72;;;20.63;100.00
46836;BME280;32573;51.290;6.926;2022-07-24T07:47:43;100533.34;;;20.69;100.00
46836;BME280;32573;51.290;6.926;2022-07-24T07:50:12;100542.19;;;20.74;100.00
46836;BME280;32573;51.290;6.926;2022-07-24T07:52:41;100543.06;;;20.79;100.00
46836;BME280;32573;51.290;6.926;2022-07-24T07:55:12;100537.69;;;20.87;100.00
46836;BME280;32573;51.290;6.926;2022-07-24T07:57:41;100542.94;;;20.92;100.00
46836;BME280;32573;51.290;6.926;2022-07-24T08:00:30;100543.81;;;20.97;100.00
46836;BME280;32573;51.290;6.926;2022-07-24T08:02:59;100538.41;;;21.03;100.00
46836;BME280;32573;51.290;6.926;2022-07-24T08:05:28;100540.13;;;21.08;100.00
46836;BME280;32573;51.290;6.926;2022-07-24T08:07:56;100537.44;;;21.13;100.00
46836;BME280;32573;51.290;6.926;2022-07-24T08:10:27;100548.00;;;21.21;100.00
46836;BME280;32573;51.290;6.926;2022-07-24T08:12:55;100543.50;;;21.27;100.00
46836;BME280;32573;51.290;6.926;2022-07-24T08:15:24;100538.97;;;21.36;100.00
46836;BME280;32573;51.290;6.926;2022-07-24T08:17:53;100536.31;;;21.42;100.00
46836;BME280;32573;51.290;6.926;2022-07-24T08:20:22;100535.34;;;21.47;100.00
46836;BME280;32573;51.290;6.926;2022-07-24T08:22:51;100530.81;;;21.54;100.00
46836;BME280;32573;51.290;6.926;2022-07-24T08:25:22;100525.44;;;21.62;100.00
46836;BME280;32573;51.290;6.926;2022-07-24T08:27:52;100534.16;;;21.71;100.00
46836;BME280;32573;51.290;6.926;2022-07-24T08:30:20;100527.00;;;21.80;100.00
46836;BME280;32573;51.290;6.926;2022-07-24T08:32:50;100526.00;;;21.87;100.00
46836;BME280;32573;51.290;6.926;2022-07-24T08:35:19;100527.66;;;21.94;100.00
46836;BME280;32573;51.290;6.926;2022-07-24T08:37:47;100526.69;;;22.01;100.00
46836;BME280;32573;51.290;6.926;2022-07-24T08:40:16;100523.97;;;22.07;100.00
46836;BME280;32573;51.290;6.926;2022-07-24T08:42:45;100515.84;;;22.13;100.00
46836;BME280;32573;51.290;6.926;2022-07-24T08:45:15;100518.50;;;22.20;100.00
46836;BME280;32573;51.290;6.926;2022-07-24T08:47:44;100518.38;;;22.26;100.00
46836;BME280;32573;51.290;6.926;2022-07-24T08:50:13;100512.94;;;22.35;100.00
46836;BME280;32573;51.290;6.926;2022-07-24T08:52:41;100514.59;;;22.42;100.00
46836;BME280;32573;51.290;6.926;2022-07-24T08:55:12;100514.50;;;22.50;100.00
46836;BME280;32573;51.290;6.926;2022-07-24T08:57:41;100514.38;;;22.57;100.00
46836;BME280;32573;51.290;6.926;2022-07-24T09:00:10;100505.34;;;22.65;100.00
46836;BME280;32573;51.290;6.926;2022-07-24T09:02:41;100503.44;;;22.71;100.00
46836;BME280;32573;51.290;6.926;2022-07-24T09:05:09;100498.03;;;22.77;100.00
46836;BME280;32573;51.290;6.926;2022-07-24T09:07:38;100501.47;;;22.84;100.00
46836;BME280;32573;51.290;6.926;2022-07-24T09:10:08;100496.88;;;22.92;100.00
46836;BME280;32573;51.290;6.926;2022-07-24T09:12:37;100494.09;;;23.00;100.00
46836;BME280;32573;51.290;6.926;2022-07-24T09:15:14;100486.81;;;23.08;100.00
46836;BME280;32573;51.290;6.926;2022-07-24T09:17:49;100489.34;;;23.16;100.00
46836;BME280;32573;51.290;6.926;2022-07-24T09:20:19;100485.66;;;23.23;100.00
46836;BME280;32573;51.290;6.926;2022-07-24T09:22:49;100481.09;;;23.30;100.00
46836;BME280;32573;51.290;6.926;2022-07-24T09:25:19;100480.97;;;23.36;100.00
46836;BME280;32573;51.290;6.926;2022-07-24T09:27:49;100478.22;;;23.40;100.00
46836;BME280;32573;51.290;6.926;2022-07-24T09:30:24;100478.03;;;23.48;100.00
46836;BME280;32573;51.290;6.926;2022-07-24T09:32:57;100479.72;;;23.54;100.00
46836;BME280;32573;51.290;6.926;2022-07-24T09:35:31;100467.09;;;23.60;100.00
46836;BME280;32573;51.290;6.926;2022-07-24T09:38:01;100469.69;;;23.65;100.00
46836;BME280;32573;51.290;6.926;2022-07-24T09:40:32;100474.00;;;23.72;100.00
46836;BME280;32573;51.290;6.926;2022-07-24T09:43:22;100467.66;;;23.79;100.00
46836;BME280;32573;51.290;6.926;2022-07-24T09:45:53;100471.94;;;23.86;100.00
46836;BME280;32573;51.290;6.926;2022-07-24T09:48:26;100470.06;;;23.92;100.00
46836;BME280;32573;51.290;6.926;2022-07-24T09:50:57;100475.25;;;23.98;100.00
46836;BME280;32573;51.290;6.926;2022-07-24T09:53:27;100468.88;;;24.03;100.00
46836;BME280;32573;51.290;6.926;2022-07-24T09:56:03;100461.56;;;24.11;100.00
46836;BME280;32573;51.290;6.926;2022-07-24T09:58:34;100455.13;;;24.20;100.00
46836;BME280;32573;51.290;6.926;2022-07-24T10:01:04;100455.00;;;24.26;100.00
46836;BME280;32573;51.290;6.926;2022-07-24T10:03:38;100458.34;;;24.35;100.00
46836;BME280;32573;51.290;6.926;2022-07-24T10:06:08;100452.84;;;24.41;100.00
46836;BME280;32573;51.290;6.926;2022-07-24T10:08:39;100450.91;;;24.49;100.00
46836;BME280;32573;51.290;6.926;2022-07-24T10:11:08;100450.75;;;24.55;100.00
46836;BME280;32573;51.290;6.926;2022-07-24T10:13:37;100446.91;;;24.65;100.00
46836;BME280;32573;51.290;6.926;2022-07-24T10:16:29;100451.16;;;24.74;100.00
46836;BME280;32573;51.290;6.926;2022-07-24T10:19:01;100447.47;;;24.78;100.00
46836;BME280;32573;51.290;6.926;2022-07-24T10:21:32;100441.97;;;24.84;100.00
46836;BME280;32573;51.290;6.926;2022-07-24T10:24:12;100444.44;;;24.92;100.00
46836;BME280;32573;51.290;6.926;2022-07-24T10:26:47;100446.03;;;24.99;100.00
46836;BME280;32573;51.290;6.926;2022-07-24T10:29:18;100451.22;;;25.05;100.00
46836;BME280;32573;51.290;6.926;2022-07-24T10:31:49;100441.22;;;25.12;100.00
46836;BME280;32573;51.290;6.926;2022-07-24T10:34:26;100441.94;;;25.18;100.00
46836;BME280;32573;51.290;6.926;2022-07-24T10:37:07;100443.53;;;25.26;100.00
46836;BME280;32573;51.290;6.926;2022-07-24T10:39:46;100437.03;;;25.34;100.00
46836;BME280;32573;51.290;6.926;2022-07-24T10:42:15;100431.44;;;25.44;100.00
46836;BME280;32573;51.290;6.926;2022-07-24T10:45:17;100423.06;;;25.54;100.00
46836;BME280;32573;51.290;6.926;2022-07-24T10:47:46;100421.84;;;25.65;100.00
46836;BME280;32573;51.290;6.926;2022-07-24T10:50:20;100426.88;;;25.75;100.00
46836;BME280;32573;51.290;6.926;2022-07-24T10:52:49;100431.09;;;25.84;100.00
46836;BME280;32573;51.290;6.926;2022-07-24T10:55:23;100423.63;;;25.95;100.00
46836;BME280;32573;51.290;6.926;2022-07-24T10:58:01;100416.13;;;26.07;100.00
46836;BME280;32573;51.290;6.926;2022-07-24T11:00:32;100412.22;;;26.17;100.00
46836;BME280;32573;51.290;6.926;2022-07-24T11:03:17;100407.41;;;26.27;100.00
46836;BME280;32573;51.290;6.926;2022-07-24T11:06:03;100411.66;;;26.34;100.00
46836;BME280;32573;51.290;6.926;2022-07-24T11:08:32;100402.53;;;26.39;100.00
46836;BME280;32573;51.290;6.926;2022-07-24T11:11:06;100405.81;;;26.47;100.00
46836;BME280;32573;51.290;6.926;2022-07-24T11:13:44;100409.25;;;26.53;100.00
46836;BME280;32573;51.290;6.926;2022-07-24T11:16:21;100396.53;;;26.58;100.00
46836;BME280;32573;51.290;6.926;2022-07-24T11:19:25;100399.03;;;26.64;100.00
46836;BME280;32573;51.290;6.926;2022-07-24T11:22:08;100393.31;;;26.73;100.00
46836;BME280;32573;51.290;6.926;2022-07-24T11:25:08;100392.97;;;26.84;100.00
46836;BME280;32573;51.290;6.926;2022-07-24T11:27:44;100389.75;;;26.98;100.00
46836;BME280;32573;51.290;6.926;2022-07-24T11:30:15;100383.94;;;27.10;100.00
46836;BME280;32573;51.290;6.926;2022-07-24T11:32:44;100383.72;;;27.16;100.00
46836;BME280;32573;51.290;6.926;2022-07-24T11:35:13;100392.38;;;27.26;100.00
46836;BME280;32573;51.290;6.926;2022-07-24T11:37:43;100377.72;;;27.33;100.00
46836;BME280;32573;51.290;6.926;2022-07-24T11:40:15;100373.00;;;27.40;100.00
46836;BME280;32573;51.290;6.926;2022-07-24T11:42:43;100371.66;;;27.51;100.00
46836;BME280;32573;51.290;6.926;2022-07-24T11:45:12;100367.63;;;27.63;100.00
46836;BME280;32573;51.290;6.926;2022-07-24T11:47:40;100367.09;;;27.75;100.00
46836;BME280;32573;51.290;6.926;2022-07-24T11:50:09;100368.56;;;27.86;100.00
46836;BME280;32573;51.290;6.926;2022-07-24T11:52:39;100359.41;;;27.90;100.00
46836;BME280;32573;51.290;6.926;2022-07-24T11:55:11;100359.25;;;27.93;100.00
46836;BME280;32573;51.290;6.926;2022-07-24T11:57:44;100354.56;;;27.98;100.00
46836;BME280;32573;51.290;6.926;2022-07-24T12:00:33;100354.19;;;28.07;100.00
46836;BME280;32573;51.290;6.926;2022-07-24T12:03:01;100347.47;;;28.17;100.00
46836;BME280;32573;51.290;6.926;2022-07-24T12:05:32;100344.34;;;28.28;100.00
46836;BME280;32573;51.290;6.926;2022-07-24T12:08:02;100341.19;;;28.39;100.00
46836;BME280;32573;51.290;6.926;2022-07-24T12:10:33;100339.84;;;28.51;100.00
46836;BME280;32573;51.290;6.926;2022-07-24T12:13:03;100344.69;;;28.63;100.00
46836;BME280;32573;51.290;6.926;2022-07-24T12:15:31;100338.00;;;28.72;100.00
46836;BME280;32573;51.290;6.926;2022-07-24T12:18:00;100334.91;;;28.81;100.00
46836;BME280;32573;51.290;6.926;2022-07-24T12:20:30;100336.38;;;28.88;100.00
46836;BME280;32573;51.290;6.926;2022-07-24T12:23:01;100333.34;;;28.96;100.00
46836;BME280;32573;51.290;6.926;2022-07-24T12:25:31;100330.34;;;29.02;100.00
46836;BME280;32573;51.290;6.926;2022-07-24T12:28:05;100331.78;;;29.11;100.00
46836;BME280;32573;51.290;6.926;2022-07-24T12:30:36;100332.72;;;29.10;100.00
46836;BME280;32573;51.290;6.926;2022-07-24T12:33:06;100320.69;;;29.17;100.00
46836;BME280;32573;51.290;6.926;2022-07-24T12:35:52;100324.22;;;29.19;100.00
46836;BME280;32573;51.290;6.926;2022-07-24T12:38:29;100311.59;;;29.19;100.00
46836;BME280;32573;51.290;6.926;2022-07-24T12:41:03;100316.78;;;29.24;100.00
46836;BME280;32573;51.290;6.926;2022-07-24T12:43:33;100311.16;;;29.29;100.00
46836;BME280;32573;51.290;6.926;2022-07-24T12:46:13;100307.66;;;29.45;100.00
46836;BME280;32573;51.290;6.926;2022-07-24T12:48:56;100316.25;;;29.54;100.00
46836;BME280;32573;51.290;6.926;2022-07-24T12:51:25;100305.16;;;29.60;100.00
46836;BME280;32573;51.290;6.926;2022-07-24T12:53:54;100302.84;;;29.71;100.00
46836;BME280;32573;51.290;6.926;2022-07-24T12:56:23;100289.56;;;29.85;100.00
46836;BME280;32573;51.290;6.926;2022-07-24T12:58:58;100292.41;;;30.00;100.00